sensor_id;sensor_type;location;lat;lon;timestamp;P1;durP1;ratioP1;P2;durP2;ratioP2
41261;SDS011;29629;52.532;13.352;2023-04-25T00:02:08;95.55;;;65.65;;
41261;SDS011;29629;52.532;13.352;2023-04-25T00:04:35;94.72;;;64.78;;
41261;SDS011;29629;52.532;13.352;2023-04-25T00:07:04;94.85;;;64.38;;
41261;SDS011;29629;52.532;13.352;2023-04-25T00:09:31;96.68;;;66.05;;
41261;SDS011;29629;52.532;13.352;2023-04-25T00:11:58;97.35;;;66.00;;
41261;SDS011;29629;52.532;13.352;2023-04-25T00:14:26;89.28;;;63.67;;
41261;SDS011;29629;52.532;13.352;2023-04-25T00:16:53;106.55;;;66.82;;
41261;SDS011;29629;52.532;13.352;2023-04-25T00:19:21;97.07;;;66.05;;
41261;SDS011;29629;52.532;13.352;2023-04-25T00:21:48;99.03;;;66.22;;
41261;SDS011;29629;52.532;13.352;2023-04-25T00:24:16;88.18;;;63.13;;
41261;SDS011;29629;52.532;13.352;2023-04-25T00:26:43;97.43;;;66.03;;
41261;SDS011;29629;52.532;13.352;2023-04-25T00:29:10;101.25;;;67.32;;
41261;SDS011;29629;52.532;13.352;2023-04-25T00:31:36;140.15;;;78.97;;
41261;SDS011;29629;52.532;13.352;2023-04-25T00:34:03;98.22;;;66.72;;
41261;SDS011;29629;52.532;13.352;2023-04-25T00:36:30;99.80;;;67.15;;
41261;SDS011;29629;52.532;13.352;2023-04-25T00:38:57;103.85;;;68.35;;
41261;SDS011;29629;52.532;13.352;2023-04-25T00:41:26;95.45;;;66.38;;
41261;SDS011;29629;52.532;13.352;2023-04-25T00:43:55;104.03;;;67.78;;
41261;SDS011;29629;52.532;13.352;2023-04-25T00:46:22;97.20;;;67.90;;
41261;SDS011;29629;52.532;13.352;2023-04-25T00:48:49;93.15;;;65.30;;
41261;SDS011;29629;52.532;13.352;2023-04-25T00:51:20;94.82;;;65.55;;
41261;SDS011;29629;52.532;13.352;2023-04-25T00:53:47;97.80;;;67.10;;
41261;SDS011;29629;52.532;13.352;2023-04-25T00:56:16;95.97;;;65.82;;
41261;SDS011;29629;52.532;13.352;2023-04-25T00:58:44;106.35;;;69.43;;
41261;SDS011;29629;52.532;13.352;2023-04-25T01:01:11;92.35;;;65.13;;
41261;SDS011;29629;52.532;13.352;2023-04-25T01:03:39;101.07;;;67.45;;
41261;SDS011;29629;52.532;13.352;2023-04-25T01:06:07;97.80;;;66.13;;
41261;SDS011;29629;52.532;13.352;2023-04-25T01:08:35;86.75;;;63.00;;
41261;SDS011;29629;52.532;13.352;2023-04-25T01:11:03;101.80;;;67.60;;
41261;SDS011;29629;52.532;13.352;2023-04-25T01:13:30;94.32;;;65.50;;
41261;SDS011;29629;52.532;13.352;2023-04-25T01:16:00;96.25;;;65.82;;
41261;SDS011;29629;52.532;13.352;2023-04-25T01:18:27;103.55;;;67.70;;
41261;SDS011;29629;52.532;13.352;2023-04-25T01:20:54;92.57;;;64.95;;
41261;SDS011;29629;52.532;13.352;2023-04-25T01:23:23;94.53;;;65.38;;
41261;SDS011;29629;52.532;13.352;2023-04-25T01:25:50;96.90;;;66.00;;
41261;SDS011;29629;52.532;13.352;2023-04-25T01:28:17;89.85;;;64.10;;
41261;SDS011;29629;52.532;13.352;2023-04-25T01:30:45;95.05;;;65.55;;
41261;SDS011;29629;52.532;13.352;2023-04-25T01:33:13;100.25;;;66.93;;
41261;SDS011;29629;52.532;13.352;2023-04-25T01:35:41;102.53;;;68.85;;
41261;SDS011;29629;52.532;13.352;2023-04-25T01:38:08;97.50;;;66.57;;
41261;SDS011;29629;52.532;13.352;2023-04-25T01:40:38;94.75;;;65.47;;
41261;SDS011;29629;52.532;13.352;2023-04-25T01:43:06;96.72;;;66.53;;
41261;SDS011;29629;52.532;13.352;2023-04-25T01:45:36;97.57;;;66.97;;
41261;SDS011;29629;52.532;13.352;2023-04-25T01:48:05;99.85;;;66.43;;
41261;SDS011;29629;52.532;13.352;2023-04-25T01:50:32;95.82;;;66.53;;
41261;SDS011;29629;52.532;13.352;2023-04-25T01:52:59;95.47;;;66.45;;
41261;SDS011;29629;52.532;13.352;2023-04-25T01:55:26;96.55;;;66.28;;
41261;SDS011;29629;52.532;13.352;2023-04-25T01:57:55;97.65;;;66.05;;
41261;SDS011;29629;52.532;13.352;2023-04-25T02:00:22;105.72;;;68.93;;
41261;SDS011;29629;52.532;13.352;2023-04-25T02:02:49;93.75;;;64.57;;
41261;SDS011;29629;52.532;13.352;2023-04-25T02:05:18;102.07;;;66.93;;
41261;SDS011;29629;52.532;13.352;2023-04-25T02:07:47;105.03;;;69.35;;
41261;SDS011;29629;52.532;13.352;2023-04-25T02:10:14;95.25;;;65.78;;
41261;SDS011;29629;52.532;13.352;2023-04-25T02:12:41;91.35;;;64.25;;
41261;SDS011;29629;52.532;13.352;2023-04-25T02:15:10;93.45;;;65.43;;
41261;SDS011;29629;52.532;13.352;2023-04-25T02:17:37;95.57;;;66.07;;
41261;SDS011;29629;52.532;13.352;2023-04-25T02:20:04;96.70;;;65.72;;
41261;SDS011;29629;52.532;13.352;2023-04-25T02:22:32;94.93;;;65.60;;
41261;SDS011;29629;52.532;13.352;2023-04-25T02:25:00;92.13;;;64.43;;
41261;SDS011;29629;52.532;13.352;2023-04-25T02:27:29;91.28;;;64.00;;
41261;SDS011;29629;52.532;13.352;2023-04-25T02:29:56;95.78;;;66.05;;
41261;SDS011;29629;52.532;13.352;2023-04-25T02:32:24;93.10;;;65.32;;
41261;SDS011;29629;52.532;13.352;2023-04-25T02:34:51;95.15;;;65.18;;
41261;SDS011;29629;52.532;13.352;2023-04-25T02:37:18;97.82;;;66.32;;
41261;SDS011;29629;52.532;13.352;2023-04-25T02:39:45;97.60;;;65.97;;
41261;SDS011;29629;52.532;13.352;2023-04-25T02:42:12;91.13;;;64.38;;
41261;SDS011;29629;52.532;13.352;2023-04-25T02:44:39;95.22;;;65.82;;
41261;SDS011;29629;52.532;13.352;2023-04-25T02:47:06;97.15;;;66.20;;
41261;SDS011;29629;52.532;13.352;2023-04-25T02:49:34;97.60;;;66.80;;
41261;SDS011;29629;52.532;13.352;2023-04-25T02:52:01;97.32;;;66.45;;
41261;SDS011;29629;52.532;13.352;2023-04-25T02:54:28;96.68;;;66.32;;
41261;SDS011;29629;52.532;13.352;2023-04-25T02:56:55;107.72;;;69.35;;
41261;SDS011;29629;52.532;13.352;2023-04-25T02:59:22;98.45;;;67.22;;
41261;SDS011;29629;52.532;13.352;2023-04-25T03:01:49;114.38;;;70.53;;
41261;SDS011;29629;52.532;13.352;2023-04-25T03:04:16;98.20;;;67.20;;
41261;SDS011;29629;52.532;13.352;2023-04-25T03:06:45;97.38;;;66.28;;
41261;SDS011;29629;52.532;13.352;2023-04-25T03:09:12;92.82;;;65.00;;
41261;SDS011;29629;52.532;13.352;2023-04-25T03:11:39;95.63;;;66.60;;
41261;SDS011;29629;52.532;13.352;2023-04-25T03:14:06;96.85;;;66.55;;
41261;SDS011;29629;52.532;13.352;2023-04-25T03:16:33;106.45;;;67.30;;
41261;SDS011;29629;52.532;13.352;2023-04-25T03:19:00;110.80;;;70.85;;
41261;SDS011;29629;52.532;13.352;2023-04-25T03:21:27;96.03;;;66.25;;
41261;SDS011;29629;52.532;13.352;2023-04-25T03:23:58;108.05;;;69.00;;
41261;SDS011;29629;52.532;13.352;2023-04-25T03:26:25;101.57;;;67.43;;
41261;SDS011;29629;52.532;13.352;2023-04-25T03:28:52;105.03;;;69.05;;
41261;SDS011;29629;52.532;13.352;2023-04-25T03:31:19;89.32;;;64.82;;
41261;SDS011;29629;52.532;13.352;2023-04-25T03:33:47;94.75;;;65.88;;
41261;SDS011;29629;52.532;13.352;2023-04-25T03:36:14;96.05;;;66.65;;
41261;SDS011;29629;52.532;13.352;2023-04-25T03:38:41;97.32;;;66.90;;
41261;SDS011;29629;52.532;13.352;2023-04-25T03:41:09;94.85;;;65.97;;
41261;SDS011;29629;52.532;13.352;2023-04-25T03:43:36;95.75;;;65.35;;
41261;SDS011;29629;52.532;13.352;2023-04-25T03:46:03;97.18;;;66.50;;
41261;SDS011;29629;52.532;13.352;2023-04-25T03:48:30;93.88;;;65.45;;
41261;SDS011;29629;52.532;13.352;2023-04-25T03:50:57;97.18;;;66.32;;
41261;SDS011;29629;52.532;13.352;2023-04-25T03:53:24;95.78;;;66.50;;
41261;SDS011;29629;52.532;13.352;2023-04-25T03:55:51;99.05;;;66.93;;
41261;SDS011;29629;52.532;13.352;2023-04-25T03:58:19;106.50;;;69.30;;
41261;SDS011;29629;52.532;13.352;2023-04-25T04:00:48;100.72;;;65.80;;
41261;SDS011;29629;52.532;13.352;2023-04-25T04:03:15;112.18;;;70.13;;
41261;SDS011;29629;52.532;13.352;2023-04-25T04:05:41;102.35;;;68.22;;
41261;SDS011;29629;52.532;13.352;2023-04-25T04:08:08;90.22;;;64.70;;
41261;SDS011;29629;52.532;13.352;2023-04-25T04:10:35;95.03;;;66.45;;
41261;SDS011;29629;52.532;13.352;2023-04-25T04:13:02;96.50;;;66.72;;
41261;SDS011;29629;52.532;13.352;2023-04-25T04:15:30;102.93;;;68.82;;
41261;SDS011;29629;52.532;13.352;2023-04-25T04:17:58;103.72;;;67.70;;
41261;SDS011;29629;52.532;13.352;2023-04-25T04:20:27;95.85;;;64.88;;
41261;SDS011;29629;52.532;13.352;2023-04-25T04:22:55;98.95;;;66.95;;
41261;SDS011;29629;52.532;13.352;2023-04-25T04:25:22;94.85;;;65.82;;
41261;SDS011;29629;52.532;13.352;2023-04-25T04:27:49;106.70;;;66.95;;
41261;SDS011;29629;52.532;13.352;2023-04-25T04:30:19;93.85;;;64.85;;
41261;SDS011;29629;52.532;13.352;2023-04-25T04:32:50;97.78;;;65.57;;
41261;SDS011;29629;52.532;13.352;2023-04-25T04:35:17;109.40;;;69.15;;
41261;SDS011;29629;52.532;13.352;2023-04-25T04:37:44;95.75;;;66.15;;
41261;SDS011;29629;52.532;13.352;2023-04-25T04:40:11;106.05;;;66.22;;
41261;SDS011;29629;52.532;13.352;2023-04-25T04:42:40;94.72;;;65.47;;
41261;SDS011;29629;52.532;13.352;2023-04-25T04:45:07;101.43;;;67.25;;
41261;SDS011;29629;52.532;13.352;2023-04-25T04:47:35;95.95;;;67.38;;
41261;SDS011;29629;52.532;13.352;2023-04-25T04:50:06;98.85;;;67.65;;
41261;SDS011;29629;52.532;13.352;2023-04-25T04:52:34;104.88;;;66.07;;
41261;SDS011;29629;52.532;13.352;2023-04-25T04:55:01;95.32;;;66.18;;
41261;SDS011;29629;52.532;13.352;2023-04-25T04:57:29;93.25;;;65.20;;
41261;SDS011;29629;52.532;13.352;2023-04-25T04:59:56;96.35;;;65.90;;
41261;SDS011;29629;52.532;13.352;2023-04-25T05:02:23;92.03;;;64.53;;
41261;SDS011;29629;52.532;13.352;2023-04-25T05:04:50;89.55;;;64.53;;
41261;SDS011;29629;52.532;13.352;2023-04-25T05:07:19;95.28;;;65.82;;
41261;SDS011;29629;52.532;13.352;2023-04-25T05:09:46;98.97;;;65.85;;
41261;SDS011;29629;52.532;13.352;2023-04-25T05:12:13;93.40;;;65.57;;
41261;SDS011;29629;52.532;13.352;2023-04-25T05:14:39;95.82;;;66.00;;
41261;SDS011;29629;52.532;13.352;2023-04-25T05:17:06;101.80;;;67.32;;
41261;SDS011;29629;52.532;13.352;2023-04-25T05:19:33;91.95;;;65.22;;
41261;SDS011;29629;52.532;13.352;2023-04-25T05:22:00;101.78;;;67.43;;
41261;SDS011;29629;52.532;13.352;2023-04-25T05:24:29;96.32;;;66.13;;
41261;SDS011;29629;52.532;13.352;2023-04-25T05:26:56;96.60;;;65.97;;
41261;SDS011;29629;52.532;13.352;2023-04-25T05:29:23;97.10;;;66.50;;
41261;SDS011;29629;52.532;13.352;2023-04-25T05:31:50;94.43;;;65.68;;
41261;SDS011;29629;52.532;13.352;2023-04-25T05:34:18;98.20;;;66.50;;
41261;SDS011;29629;52.532;13.352;2023-04-25T05:36:44;95.28;;;65.55;;
41261;SDS011;29629;52.532;13.352;2023-04-25T05:39:13;96.68;;;66.00;;
41261;SDS011;29629;52.532;13.352;2023-04-25T05:41:41;98.32;;;66.07;;
41261;SDS011;29629;52.532;13.352;2023-04-25T05:44:08;99.22;;;66.45;;
41261;SDS011;29629;52.532;13.352;2023-04-25T05:46:35;93.45;;;65.05;;
41261;SDS011;29629;52.532;13.352;2023-04-25T05:49:02;106.78;;;69.50;;
41261;SDS011;29629;52.532;13.352;2023-04-25T05:51:29;112.03;;;68.97;;
41261;SDS011;29629;52.532;13.352;2023-04-25T05:53:56;101.43;;;68.13;;
41261;SDS011;29629;52.532;13.352;2023-04-25T05:56:23;95.88;;;66.72;;
41261;SDS011;29629;52.532;13.352;2023-04-25T05:58:52;95.70;;;66.72;;
41261;SDS011;29629;52.532;13.352;2023-04-25T06:01:19;98.05;;;67.70;;
41261;SDS011;29629;52.532;13.352;2023-04-25T06:03:45;94.88;;;65.93;;
41261;SDS011;29629;52.532;13.352;2023-04-25T06:06:12;97.22;;;67.03;;
41261;SDS011;29629;52.532;13.352;2023-04-25T06:08:39;97.65;;;67.20;;
41261;SDS011;29629;52.532;13.352;2023-04-25T06:11:06;101.03;;;67.07;;
41261;SDS011;29629;52.532;13.352;2023-04-25T06:13:33;97.72;;;66.90;;
41261;SDS011;29629;52.532;13.352;2023-04-25T06:16:02;109.45;;;70.35;;
41261;SDS011;29629;52.532;13.352;2023-04-25T06:18:29;96.45;;;67.13;;
41261;SDS011;29629;52.532;13.352;2023-04-25T06:20:56;99.18;;;67.45;;
41261;SDS011;29629;52.532;13.352;2023-04-25T06:23:23;99.28;;;67.65;;
41261;SDS011;29629;52.532;13.352;2023-04-25T06:25:50;87.25;;;63.85;;
41261;SDS011;29629;52.532;13.352;2023-04-25T06:28:17;98.47;;;67.07;;
41261;SDS011;29629;52.532;13.352;2023-04-25T06:30:44;96.63;;;66.35;;
41261;SDS011;29629;52.532;13.352;2023-04-25T06:33:12;102.25;;;68.95;;
41261;SDS011;29629;52.532;13.352;2023-04-25T06:35:39;107.97;;;70.57;;
41261;SDS011;29629;52.532;13.352;2023-04-25T06:38:06;99.25;;;67.50;;
41261;SDS011;29629;52.532;13.352;2023-04-25T06:40:34;99.20;;;67.53;;
41261;SDS011;29629;52.532;13.352;2023-04-25T06:43:00;96.47;;;67.15;;
41261;SDS011;29629;52.532;13.352;2023-04-25T06:45:27;100.55;;;67.82;;
41261;SDS011;29629;52.532;13.352;2023-04-25T06:47:54;97.50;;;68.03;;
41261;SDS011;29629;52.532;13.352;2023-04-25T06:50:23;95.63;;;65.40;;
41261;SDS011;29629;52.532;13.352;2023-04-25T06:52:50;97.15;;;67.28;;
41261;SDS011;29629;52.532;13.352;2023-04-25T06:55:17;99.47;;;67.38;;
41261;SDS011;29629;52.532;13.352;2023-04-25T06:57:44;102.45;;;67.50;;
41261;SDS011;29629;52.532;13.352;2023-04-25T07:00:12;100.97;;;67.28;;
41261;SDS011;29629;52.532;13.352;2023-04-25T07:02:40;99.75;;;67.03;;
41261;SDS011;29629;52.532;13.352;2023-04-25T07:05:08;110.40;;;67.68;;
41261;SDS011;29629;52.532;13.352;2023-04-25T07:07:37;99.05;;;67.85;;
41261;SDS011;29629;52.532;13.352;2023-04-25T07:10:04;99.30;;;66.97;;
41261;SDS011;29629;52.532;13.352;2023-04-25T07:12:31;98.22;;;67.85;;
41261;SDS011;29629;52.532;13.352;2023-04-25T07:14:58;98.82;;;66.00;;
41261;SDS011;29629;52.532;13.352;2023-04-25T07:17:30;88.15;;;63.22;;
41261;SDS011;29629;52.532;13.352;2023-04-25T07:19:58;108.07;;;69.88;;
41261;SDS011;29629;52.532;13.352;2023-04-25T07:22:25;103.72;;;68.53;;
41261;SDS011;29629;52.532;13.352;2023-04-25T07:24:53;99.85;;;67.45;;
41261;SDS011;29629;52.532;13.352;2023-04-25T07:27:21;99.47;;;67.47;;
41261;SDS011;29629;52.532;13.352;2023-04-25T07:29:47;99.18;;;67.70;;
41261;SDS011;29629;52.532;13.352;2023-04-25T07:32:14;97.43;;;67.22;;
41261;SDS011;29629;52.532;13.352;2023-04-25T07:34:41;94.93;;;66.03;;
41261;SDS011;29629;52.532;13.352;2023-04-25T07:37:08;99.93;;;67.45;;
41261;SDS011;29629;52.532;13.352;2023-04-25T07:39:35;100.30;;;67.10;;
41261;SDS011;29629;52.532;13.352;2023-04-25T07:42:04;111.45;;;68.63;;
41261;SDS011;29629;52.532;13.352;2023-04-25T07:44:33;97.00;;;66.68;;
41261;SDS011;29629;52.532;13.352;2023-04-25T07:47:05;94.55;;;65.65;;
41261;SDS011;29629;52.532;13.352;2023-04-25T07:49:35;99.60;;;67.95;;
41261;SDS011;29629;52.532;13.352;2023-04-25T07:52:03;109.15;;;68.97;;
41261;SDS011;29629;52.532;13.352;2023-04-25T07:54:31;95.43;;;66.25;;
41261;SDS011;29629;52.532;13.352;2023-04-25T07:56:58;96.50;;;66.85;;
41261;SDS011;29629;52.532;13.352;2023-04-25T07:59:27;103.90;;;67.95;;
41261;SDS011;29629;52.532;13.352;2023-04-25T08:01:55;100.03;;;67.82;;
41261;SDS011;29629;52.532;13.352;2023-04-25T08:04:22;106.70;;;67.82;;
41261;SDS011;29629;52.532;13.352;2023-04-25T08:06:50;98.65;;;68.28;;
41261;SDS011;29629;52.532;13.352;2023-04-25T08:09:17;95.45;;;66.72;;
41261;SDS011;29629;52.532;13.352;2023-04-25T08:11:44;104.63;;;67.93;;
41261;SDS011;29629;52.532;13.352;2023-04-25T08:14:11;105.88;;;68.28;;
41261;SDS011;29629;52.532;13.352;2023-04-25T08:16:40;106.88;;;70.03;;
41261;SDS011;29629;52.532;13.352;2023-04-25T08:19:07;111.55;;;71.68;;
41261;SDS011;29629;52.532;13.352;2023-04-25T08:21:34;99.45;;;68.38;;
41261;SDS011;29629;52.532;13.352;2023-04-25T08:24:01;104.70;;;69.43;;
41261;SDS011;29629;52.532;13.352;2023-04-25T08:26:28;95.93;;;66.70;;
41261;SDS011;29629;52.532;13.352;2023-04-25T08:28:55;119.82;;;74.32;;
41261;SDS011;29629;52.532;13.352;2023-04-25T08:31:22;101.45;;;68.63;;
41261;SDS011;29629;52.532;13.352;2023-04-25T08:33:50;100.50;;;68.97;;
41261;SDS011;29629;52.532;13.352;2023-04-25T08:36:17;97.50;;;67.57;;
41261;SDS011;29629;52.532;13.352;2023-04-25T08:38:44;96.75;;;67.57;;
41261;SDS011;29629;52.532;13.352;2023-04-25T08:41:11;99.65;;;68.70;;
41261;SDS011;29629;52.532;13.352;2023-04-25T08:43:38;101.05;;;68.18;;
41261;SDS011;29629;52.532;13.352;2023-04-25T08:46:09;103.13;;;69.15;;
41261;SDS011;29629;52.532;13.352;2023-04-25T08:48:38;99.55;;;68.88;;
41261;SDS011;29629;52.532;13.352;2023-04-25T08:51:09;95.80;;;68.07;;
41261;SDS011;29629;52.532;13.352;2023-04-25T08:53:41;98.95;;;69.00;;
41261;SDS011;29629;52.532;13.352;2023-04-25T08:56:11;103.28;;;70.88;;
41261;SDS011;29629;52.532;13.352;2023-04-25T08:58:42;103.45;;;68.20;;
41261;SDS011;29629;52.532;13.352;2023-04-25T09:01:11;88.00;;;67.45;;
41261;SDS011;29629;52.532;13.352;2023-04-25T09:03:37;87.60;;;65.88;;
41261;SDS011;29629;52.532;13.352;2023-04-25T09:06:04;76.30;;;60.15;;
41261;SDS011;29629;52.532;13.352;2023-04-25T09:08:33;70.88;;;58.50;;
41261;SDS011;29629;52.532;13.352;2023-04-25T09:11:02;36.67;;;32.95;;
41261;SDS011;29629;52.532;13.352;2023-04-25T09:13:29;24.95;;;16.50;;
41261;SDS011;29629;52.532;13.352;2023-04-25T09:15:56;43.50;;;38.88;;
41261;SDS011;29629;52.532;13.352;2023-04-25T09:18:24;48.70;;;42.83;;
41261;SDS011;29629;52.532;13.352;2023-04-25T09:20:52;45.35;;;40.08;;
41261;SDS011;29629;52.532;13.352;2023-04-25T09:23:19;48.05;;;43.25;;
41261;SDS011;29629;52.532;13.352;2023-04-25T09:25:49;69.50;;;56.53;;
41261;SDS011;29629;52.532;13.352;2023-04-25T09:28:22;81.90;;;67.90;;
41261;SDS011;29629;52.532;13.352;2023-04-25T09:30:53;77.80;;;64.05;;
41261;SDS011;29629;52.532;13.352;2023-04-25T09:33:22;77.90;;;64.70;;
41261;SDS011;29629;52.532;13.352;2023-04-25T09:35:53;57.50;;;51.33;;
41261;SDS011;29629;52.532;13.352;2023-04-25T09:38:27;75.22;;;63.30;;
41261;SDS011;29629;52.532;13.352;2023-04-25T09:40:58;65.90;;;58.83;;
41261;SDS011;29629;52.532;13.352;2023-04-25T09:43:26;83.82;;;69.05;;
41261;SDS011;29629;52.532;13.352;2023-04-25T09:45:55;89.78;;;70.50;;
41261;SDS011;29629;52.532;13.352;2023-04-25T09:48:24;88.15;;;71.03;;
41261;SDS011;29629;52.532;13.352;2023-04-25T09:51:05;97.00;;;72.13;;
41261;SDS011;29629;52.532;13.352;2023-04-25T09:53:33;97.18;;;71.63;;
41261;SDS011;29629;52.532;13.352;2023-04-25T09:56:04;96.07;;;71.07;;
41261;SDS011;29629;52.532;13.352;2023-04-25T09:58:32;103.70;;;72.85;;
41261;SDS011;29629;52.532;13.352;2023-04-25T10:01:01;103.60;;;73.60;;
41261;SDS011;29629;52.532;13.352;2023-04-25T10:03:30;89.22;;;68.93;;
41261;SDS011;29629;52.532;13.352;2023-04-25T10:05:59;96.30;;;70.53;;
41261;SDS011;29629;52.532;13.352;2023-04-25T10:08:28;95.80;;;69.88;;
41261;SDS011;29629;52.532;13.352;2023-04-25T10:10:58;96.22;;;69.85;;
41261;SDS011;29629;52.532;13.352;2023-04-25T10:13:29;96.07;;;69.50;;
41261;SDS011;29629;52.532;13.352;2023-04-25T10:15:57;90.68;;;69.03;;
41261;SDS011;29629;52.532;13.352;2023-04-25T10:18:25;97.10;;;70.88;;
41261;SDS011;29629;52.532;13.352;2023-04-25T10:20:53;103.65;;;72.85;;
41261;SDS011;29629;52.532;13.352;2023-04-25T10:23:22;94.07;;;69.95;;
41261;SDS011;29629;52.532;13.352;2023-04-25T10:25:50;112.60;;;77.65;;
41261;SDS011;29629;52.532;13.352;2023-04-25T10:28:18;93.50;;;68.78;;
41261;SDS011;29629;52.532;13.352;2023-04-25T10:30:59;97.82;;;69.70;;
41261;SDS011;29629;52.532;13.352;2023-04-25T10:33:33;96.68;;;68.70;;
41261;SDS011;29629;52.532;13.352;2023-04-25T10:36:11;98.63;;;69.50;;
41261;SDS011;29629;52.532;13.352;2023-04-25T10:38:40;95.82;;;68.30;;
41261;SDS011;29629;52.532;13.352;2023-04-25T10:41:10;96.45;;;68.75;;
41261;SDS011;29629;52.532;13.352;2023-04-25T10:43:39;95.30;;;68.32;;
41261;SDS011;29629;52.532;13.352;2023-04-25T10:46:15;98.85;;;69.68;;
41261;SDS011;29629;52.532;13.352;2023-04-25T10:48:48;95.53;;;69.07;;
41261;SDS011;29629;52.532;13.352;2023-04-25T10:51:17;99.97;;;68.78;;
41261;SDS011;29629;52.532;13.352;2023-04-25T10:53:46;92.50;;;68.07;;
41261;SDS011;29629;52.532;13.352;2023-04-25T10:56:23;99.05;;;69.47;;
41261;SDS011;29629;52.532;13.352;2023-04-25T10:59:02;122.38;;;77.72;;
41261;SDS011;29629;52.532;13.352;2023-04-25T11:01:35;97.55;;;68.30;;
41261;SDS011;29629;52.532;13.352;2023-04-25T11:04:04;95.72;;;68.95;;
41261;SDS011;29629;52.532;13.352;2023-04-25T11:06:34;95.65;;;68.47;;
41261;SDS011;29629;52.532;13.352;2023-04-25T11:09:20;88.80;;;66.78;;
41261;SDS011;29629;52.532;13.352;2023-04-25T11:11:53;97.30;;;68.90;;
41261;SDS011;29629;52.532;13.352;2023-04-25T11:14:21;99.03;;;68.32;;
41261;SDS011;29629;52.532;13.352;2023-04-25T11:16:53;104.18;;;70.47;;
41261;SDS011;29629;52.532;13.352;2023-04-25T11:19:21;102.95;;;69.65;;
41261;SDS011;29629;52.532;13.352;2023-04-25T11:21:48;103.50;;;70.82;;
41261;SDS011;29629;52.532;13.352;2023-04-25T11:24:15;102.53;;;68.97;;
41261;SDS011;29629;52.532;13.352;2023-04-25T11:26:43;98.90;;;68.55;;
41261;SDS011;29629;52.532;13.352;2023-04-25T11:29:12;100.32;;;69.18;;
41261;SDS011;29629;52.532;13.352;2023-04-25T11:31:42;99.43;;;69.00;;
41261;SDS011;29629;52.532;13.352;2023-04-25T11:34:11;99.75;;;69.28;;
41261;SDS011;29629;52.532;13.352;2023-04-25T11:36:43;102.68;;;68.35;;
41261;SDS011;29629;52.532;13.352;2023-04-25T11:39:11;99.50;;;68.65;;
41261;SDS011;29629;52.532;13.352;2023-04-25T11:41:38;103.45;;;69.07;;
41261;SDS011;29629;52.532;13.352;2023-04-25T11:44:05;100.53;;;68.65;;
41261;SDS011;29629;52.532;13.352;2023-04-25T11:46:33;106.88;;;72.95;;
41261;SDS011;29629;52.532;13.352;2023-04-25T11:49:01;116.18;;;89.97;;
41261;SDS011;29629;52.532;13.352;2023-04-25T11:51:30;96.72;;;68.65;;
41261;SDS011;29629;52.532;13.352;2023-04-25T11:54:05;95.45;;;70.30;;
41261;SDS011;29629;52.532;13.352;2023-04-25T11:56:32;96.68;;;68.10;;
41261;SDS011;29629;52.532;13.352;2023-04-25T11:59:00;108.40;;;71.57;;
41261;SDS011;29629;52.532;13.352;2023-04-25T12:01:28;95.70;;;67.57;;
41261;SDS011;29629;52.532;13.352;2023-04-25T12:03:57;103.50;;;68.82;;
41261;SDS011;29629;52.532;13.352;2023-04-25T12:06:27;95.95;;;68.00;;
41261;SDS011;29629;52.532;13.352;2023-04-25T12:09:00;98.93;;;69.47;;
41261;SDS011;29629;52.532;13.352;2023-04-25T12:11:29;89.25;;;65.47;;
41261;SDS011;29629;52.532;13.352;2023-04-25T12:14:01;99.40;;;68.53;;
41261;SDS011;29629;52.532;13.352;2023-04-25T12:16:29;95.60;;;67.18;;
41261;SDS011;29629;52.532;13.352;2023-04-25T12:19:06;101.75;;;71.40;;
41261;SDS011;29629;52.532;13.352;2023-04-25T12:21:34;98.57;;;70.30;;
41261;SDS011;29629;52.532;13.352;2023-04-25T12:24:09;98.65;;;68.40;;
41261;SDS011;29629;52.532;13.352;2023-04-25T12:26:46;106.63;;;68.50;;
41261;SDS011;29629;52.532;13.352;2023-04-25T12:29:15;101.68;;;69.20;;
41261;SDS011;29629;52.532;13.352;2023-04-25T12:31:43;100.00;;;68.85;;
41261;SDS011;29629;52.532;13.352;2023-04-25T12:34:11;98.05;;;68.57;;
41261;SDS011;29629;52.532;13.352;2023-04-25T12:36:40;101.53;;;69.93;;
41261;SDS011;29629;52.532;13.352;2023-04-25T12:39:07;105.50;;;72.93;;
41261;SDS011;29629;52.532;13.352;2023-04-25T12:41:34;96.47;;;68.65;;
41261;SDS011;29629;52.532;13.352;2023-04-25T12:44:01;94.22;;;68.70;;
41261;SDS011;29629;52.532;13.352;2023-04-25T12:46:28;99.57;;;70.40;;
41261;SDS011;29629;52.532;13.352;2023-04-25T12:48:55;107.75;;;72.47;;
41261;SDS011;29629;52.532;13.352;2023-04-25T12:51:22;96.07;;;68.53;;
41261;SDS011;29629;52.532;13.352;2023-04-25T12:53:51;97.40;;;69.82;;
41261;SDS011;29629;52.532;13.352;2023-04-25T12:56:19;99.25;;;69.20;;
41261;SDS011;29629;52.532;13.352;2023-04-25T12:58:46;107.32;;;74.15;;
41261;SDS011;29629;52.532;13.352;2023-04-25T13:01:13;100.05;;;68.10;;
41261;SDS011;29629;52.532;13.352;2023-04-25T13:03:40;96.22;;;68.63;;
41261;SDS011;29629;52.532;13.352;2023-04-25T13:06:09;110.00;;;71.13;;
41261;SDS011;29629;52.532;13.352;2023-04-25T13:08:37;98.28;;;68.18;;
41261;SDS011;29629;52.532;13.352;2023-04-25T13:11:06;99.07;;;69.10;;
41261;SDS011;29629;52.532;13.352;2023-04-25T13:13:34;98.30;;;69.72;;
41261;SDS011;29629;52.532;13.352;2023-04-25T13:16:01;102.47;;;73.55;;
41261;SDS011;29629;52.532;13.352;2023-04-25T13:18:28;96.43;;;70.38;;
41261;SDS011;29629;52.532;13.352;2023-04-25T13:20:56;99.50;;;70.30;;
41261;SDS011;29629;52.532;13.352;2023-04-25T13:23:24;102.68;;;74.13;;
41261;SDS011;29629;52.532;13.352;2023-04-25T13:25:53;107.47;;;73.00;;
41261;SDS011;29629;52.532;13.352;2023-04-25T13:28:24;97.60;;;70.18;;
41261;SDS011;29629;52.532;13.352;2023-04-25T13:30:51;98.47;;;73.60;;
41261;SDS011;29629;52.532;13.352;2023-04-25T13:33:19;98.47;;;69.78;;
41261;SDS011;29629;52.532;13.352;2023-04-25T13:35:46;98.05;;;69.55;;
41261;SDS011;29629;52.532;13.352;2023-04-25T13:38:18;115.40;;;73.57;;
41261;SDS011;29629;52.532;13.352;2023-04-25T13:40:46;100.43;;;69.20;;
41261;SDS011;29629;52.532;13.352;2023-04-25T13:43:13;95.88;;;67.10;;
41261;SDS011;29629;52.532;13.352;2023-04-25T13:45:42;101.90;;;69.63;;
41261;SDS011;29629;52.532;13.352;2023-04-25T13:48:09;98.70;;;69.20;;
41261;SDS011;29629;52.532;13.352;2023-04-25T13:50:36;97.68;;;68.72;;
41261;SDS011;29629;52.532;13.352;2023-04-25T13:53:03;102.32;;;69.78;;
41261;SDS011;29629;52.532;13.352;2023-04-25T13:55:31;102.22;;;71.03;;
41261;SDS011;29629;52.532;13.352;2023-04-25T13:57:58;100.75;;;69.65;;
41261;SDS011;29629;52.532;13.352;2023-04-25T14:00:25;95.60;;;68.28;;
41261;SDS011;29629;52.532;13.352;2023-04-25T14:02:53;94.72;;;68.30;;
41261;SDS011;29629;52.532;13.352;2023-04-25T14:05:20;104.85;;;70.85;;
41261;SDS011;29629;52.532;13.352;2023-04-25T14:07:47;97.60;;;68.32;;
41261;SDS011;29629;52.532;13.352;2023-04-25T14:10:14;100.40;;;69.60;;
41261;SDS011;29629;52.532;13.352;2023-04-25T14:12:41;101.25;;;73.28;;